sensor_id;sensor_type;location;lat;lon;timestamp;temperature;humidity
13115;DHT22;6623;52.120;8.660;2022-12-18T00:01:34;-3.80;77.40
13115;DHT22;6623;52.120;8.660;2022-12-18T00:04:05;-3.80;77.50
13115;DHT22;6623;52.120;8.660;2022-12-18T00:06:35;-3.70;77.60
13115;DHT22;6623;52.120;8.660;2022-12-18T00:09:02;-3.90;77.50
13115;DHT22;6623;52.120;8.660;2022-12-18T00:11:31;-3.90;77.50
13115;DHT22;6623;52.120;8.660;2022-12-18T00:13:58;-3.80;77.60
13115;DHT22;6623;52.120;8.660;2022-12-18T00:16:30;-3.80;77.60
13115;DHT22;6623;52.120;8.660;2022-12-18T00:19:02;-3.90;77.50
13115;DHT22;6623;52.120;8.660;2022-12-18T00:21:29;-3.90;77.40
13115;DHT22;6623;52.120;8.660;2022-12-18T00:24:04;-3.80;77.50
13115;DHT22;6623;52.120;8.660;2022-12-18T00:26:31;-3.90;77.50
13115;DHT22;6623;52.120;8.660;2022-12-18T00:29:10;-3.80;77.50
13115;DHT22;6623;52.120;8.660;2022-12-18T00:31:37;-3.80;77.40
13115;DHT22;6623;52.120;8.660;2022-12-18T00:34:08;-3.90;77.30
13115;DHT22;6623;52.120;8.660;2022-12-18T00:36:40;-3.90;77.30
13115;DHT22;6623;52.120;8.660;2022-12-18T00:39:06;-3.90;77.40
13115;DHT22;6623;52.120;8.660;2022-12-18T00:41:41;-4.00;77.40
13115;DHT22;6623;52.120;8.660;2022-12-18T00:44:25;-4.00;77.30
13115;DHT22;6623;52.120;8.660;2022-12-18T00:46:50;-3.60;77.50
13115;DHT22;6623;52.120;8.660;2022-12-18T00:49:23;-3.90;77.30
13115;DHT22;6623;52.120;8.660;2022-12-18T00:52:05;-4.30;77.10
13115;DHT22;6623;52.120;8.660;2022-12-18T00:54:30;-4.00;77.30
13115;DHT22;6623;52.120;8.660;2022-12-18T00:57:08;-4.00;77.30
13115;DHT22;6623;52.120;8.660;2022-12-18T00:59:33;-3.90;77.40
13115;DHT22;6623;52.120;8.660;2022-12-18T01:01:59;-4.00;77.30
13115;DHT22;6623;52.120;8.660;2022-12-18T01:04:25;-3.90;77.40
13115;DHT22;6623;52.120;8.660;2022-12-18T01:07:02;-4.00;77.30
13115;DHT22;6623;52.120;8.660;2022-12-18T01:09:28;-3.90;77.30
13115;DHT22;6623;52.120;8.660;2022-12-18T01:11:54;-4.00;77.20
13115;DHT22;6623;52.120;8.660;2022-12-18T01:14:19;-4.00;77.20
13115;DHT22;6623;52.120;8.660;2022-12-18T01:16:48;-4.00;77.20
13115;DHT22;6623;52.120;8.660;2022-12-18T01:19:13;-4.00;77.30
13115;DHT22;6623;52.120;8.660;2022-12-18T01:21:39;-4.00;77.30
13115;DHT22;6623;52.120;8.660;2022-12-18T01:24:10;-4.00;77.30
13115;DHT22;6623;52.120;8.660;2022-12-18T01:26:55;-4.00;77.30
13115;DHT22;6623;52.120;8.660;2022-12-18T01:29:25;-4.10;77.30
13115;DHT22;6623;52.120;8.660;2022-12-18T01:31:57;-3.30;77.80
13115;DHT22;6623;52.120;8.660;2022-12-18T01:34:25;-4.00;77.40
13115;DHT22;6623;52.120;8.660;2022-12-18T01:36:51;-4.00;77.40
13115;DHT22;6623;52.120;8.660;2022-12-18T01:39:26;-4.00;77.40
13115;DHT22;6623;52.120;8.660;2022-12-18T01:41:52;-4.00;77.40
13115;DHT22;6623;52.120;8.660;2022-12-18T01:47:55;-4.10;77.50
13115;DHT22;6623;52.120;8.660;2022-12-18T01:50:25;-4.10;77.50
13115;DHT22;6623;52.120;8.660;2022-12-18T01:53:19;-3.70;77.60
13115;DHT22;6623;52.120;8.660;2022-12-18T01:55:49;-4.10;77.30
13115;DHT22;6623;52.120;8.660;2022-12-18T02:01:10;-4.10;77.30
13115;DHT22;6623;52.120;8.660;2022-12-18T02:03:42;-3.50;77.70
13115;DHT22;6623;52.120;8.660;2022-12-18T02:06:15;-4.10;77.20
13115;DHT22;6623;52.120;8.660;2022-12-18T02:08:51;-4.10;77.20
13115;DHT22;6623;52.120;8.660;2022-12-18T02:15:13;-4.10;77.20
13115;DHT22;6623;52.120;8.660;2022-12-18T02:17:52;-4.10;77.20
13115;DHT22;6623;52.120;8.660;2022-12-18T02:20:28;-3.20;77.60
13115;DHT22;6623;52.120;8.660;2022-12-18T02:29:04;-4.10;77.70
13115;DHT22;6623;52.120;8.660;2022-12-18T02:31:35;-4.10;77.10
13115;DHT22;6623;52.120;8.660;2022-12-18T02:34:04;-4.10;77.10
13115;DHT22;6623;52.120;8.660;2022-12-18T02:36:35;-4.10;77.10
13115;DHT22;6623;52.120;8.660;2022-12-18T02:39:02;-4.10;77.10
13115;DHT22;6623;52.120;8.660;2022-12-18T02:41:32;-4.10;77.00
13115;DHT22;6623;52.120;8.660;2022-12-18T02:44:06;-4.10;77.10
13115;DHT22;6623;52.120;8.660;2022-12-18T02:46:49;-4.10;77.00
13115;DHT22;6623;52.120;8.660;2022-12-18T02:54:55;-4.10;76.90
13115;DHT22;6623;52.120;8.660;2022-12-18T02:57:48;-4.10;76.90
13115;DHT22;6623;52.120;8.660;2022-12-18T03:00:51;-4.20;76.90
13115;DHT22;6623;52.120;8.660;2022-12-18T03:06:14;-4.20;76.80
13115;DHT22;6623;52.120;8.660;2022-12-18T03:08:43;-4.20;76.80
13115;DHT22;6623;52.120;8.660;2022-12-18T03:11:12;-4.10;76.90
13115;DHT22;6623;52.120;8.660;2022-12-18T03:13:52;-4.20;76.80
13115;DHT22;6623;52.120;8.660;2022-12-18T03:16:25;-4.20;76.80
13115;DHT22;6623;52.120;8.660;2022-12-18T03:19:00;-4.20;76.80
13115;DHT22;6623;52.120;8.660;2022-12-18T03:21:29;-4.20;77.40
13115;DHT22;6623;52.120;8.660;2022-12-18T03:23:57;-4.20;76.60
13115;DHT22;6623;52.120;8.660;2022-12-18T03:26:25;-4.20;76.50
13115;DHT22;6623;52.120;8.660;2022-12-18T03:28:58;-4.20;76.40
13115;DHT22;6623;52.120;8.660;2022-12-18T03:31:26;-4.30;76.30
13115;DHT22;6623;52.120;8.660;2022-12-18T03:33:58;-4.30;76.20
13115;DHT22;6623;52.120;8.660;2022-12-18T03:36:25;-4.30;76.10
13115;DHT22;6623;52.120;8.660;2022-12-18T03:38:51;-4.30;76.00
13115;DHT22;6623;52.120;8.660;2022-12-18T03:41:38;-4.40;76.00
13115;DHT22;6623;52.120;8.660;2022-12-18T03:47:07;-4.40;75.70
13115;DHT22;6623;52.120;8.660;2022-12-18T03:50:06;-4.50;75.70
13115;DHT22;6623;52.120;8.660;2022-12-18T03:52:40;-4.50;75.60
13115;DHT22;6623;52.120;8.660;2022-12-18T03:55:09;-4.60;75.50
13115;DHT22;6623;52.120;8.660;2022-12-18T03:57:37;-4.60;75.40
13115;DHT22;6623;52.120;8.660;2022-12-18T04:00:14;-4.60;75.40
13115;DHT22;6623;52.120;8.660;2022-12-18T04:02:45;-4.60;75.30
13115;DHT22;6623;52.120;8.660;2022-12-18T04:05:12;-4.60;75.20
13115;DHT22;6623;52.120;8.660;2022-12-18T04:07:38;-4.60;75.20
13115;DHT22;6623;52.120;8.660;2022-12-18T04:10:06;-4.60;75.20
13115;DHT22;6623;52.120;8.660;2022-12-18T04:12:32;-4.70;75.20
13115;DHT22;6623;52.120;8.660;2022-12-18T04:15:00;-4.70;75.20
13115;DHT22;6623;52.120;8.660;2022-12-18T04:17:26;-4.70;75.20
13115;DHT22;6623;52.120;8.660;2022-12-18T04:19:51;-4.60;75.20
13115;DHT22;6623;52.120;8.660;2022-12-18T04:25:12;-4.80;74.90
13115;DHT22;6623;52.120;8.660;2022-12-18T04:27:47;-4.80;75.00
13115;DHT22;6623;52.120;8.660;2022-12-18T04:30:13;-4.90;75.00
13115;DHT22;6623;52.120;8.660;2022-12-18T04:32:38;-4.80;74.90
13115;DHT22;6623;52.120;8.660;2022-12-18T04:35:10;-4.80;74.90
13115;DHT22;6623;52.120;8.660;2022-12-18T04:37:37;-4.90;74.80
13115;DHT22;6623;52.120;8.660;2022-12-18T04:40:06;-4.90;74.80
13115;DHT22;6623;52.120;8.660;2022-12-18T04:42:32;-4.90;74.70
13115;DHT22;6623;52.120;8.660;2022-12-18T04:45:00;-4.90;74.80
13115;DHT22;6623;52.120;8.660;2022-12-18T04:47:26;-4.90;74.70
13115;DHT22;6623;52.120;8.660;2022-12-18T04:50:01;-5.00;74.60
13115;DHT22;6623;52.120;8.660;2022-12-18T04:52:26;-5.00;74.70
13115;DHT22;6623;52.120;8.660;2022-12-18T04:55:01;-4.50;74.90
13115;DHT22;6623;52.120;8.660;2022-12-18T04:57:27;-4.60;74.80
13115;DHT22;6623;52.120;8.660;2022-12-18T05:00:05;-5.00;74.40
13115;DHT22;6623;52.120;8.660;2022-12-18T05:02:31;-5.00;74.40
13115;DHT22;6623;52.120;8.660;2022-12-18T05:05:23;-5.10;74.40
13115;DHT22;6623;52.120;8.660;2022-12-18T05:07:57;-5.10;74.50
13115;DHT22;6623;52.120;8.660;2022-12-18T05:10:23;-5.10;74.50
13115;DHT22;6623;52.120;8.660;2022-12-18T05:12:48;-5.10;74.50
13115;DHT22;6623;52.120;8.660;2022-12-18T05:15:31;-5.10;74.60
13115;DHT22;6623;52.120;8.660;2022-12-18T05:17:57;-5.00;75.30
13115;DHT22;6623;52.120;8.660;2022-12-18T05:20:23;-5.00;74.80
13115;DHT22;6623;52.120;8.660;2022-12-18T05:22:49;-5.00;74.90
13115;DHT22;6623;52.120;8.660;2022-12-18T05:25:15;-4.90;74.90
13115;DHT22;6623;52.120;8.660;2022-12-18T05:27:40;-4.80;75.10
13115;DHT22;6623;52.120;8.660;2022-12-18T05:30:07;-4.90;75.10
13115;DHT22;6623;52.120;8.660;2022-12-18T05:32:33;-4.90;75.10
13115;DHT22;6623;52.120;8.660;2022-12-18T05:34:58;-4.80;75.30
13115;DHT22;6623;52.120;8.660;2022-12-18T05:37:24;-4.80;75.30
13115;DHT22;6623;52.120;8.660;2022-12-18T05:39:49;-4.80;75.50
13115;DHT22;6623;52.120;8.660;2022-12-18T05:42:15;-4.80;75.40
13115;DHT22;6623;52.120;8.660;2022-12-18T05:44:40;-4.80;75.40
13115;DHT22;6623;52.120;8.660;2022-12-18T05:47:06;-4.80;75.50
13115;DHT22;6623;52.120;8.660;2022-12-18T05:49:32;-4.80;75.50
13115;DHT22;6623;52.120;8.660;2022-12-18T05:51:57;-4.80;75.50
13115;DHT22;6623;52.120;8.660;2022-12-18T05:54:23;-4.70;75.50
13115;DHT22;6623;52.120;8.660;2022-12-18T05:56:48;-4.80;75.40
13115;DHT22;6623;52.120;8.660;2022-12-18T05:59:14;-4.80;75.40
13115;DHT22;6623;52.120;8.660;2022-12-18T06:01:39;-4.80;75.40
13115;DHT22;6623;52.120;8.660;2022-12-18T06:04:05;-4.80;75.40
13115;DHT22;6623;52.120;8.660;2022-12-18T06:06:31;-4.80;75.40
13115;DHT22;6623;52.120;8.660;2022-12-18T06:08:57;-4.80;75.40
13115;DHT22;6623;52.120;8.660;2022-12-18T06:11:24;-4.80;75.50
13115;DHT22;6623;52.120;8.660;2022-12-18T06:13:51;-4.80;75.40
13115;DHT22;6623;52.120;8.660;2022-12-18T06:16:17;-4.80;75.50
13115;DHT22;6623;52.120;8.660;2022-12-18T06:18:46;-4.80;75.50
13115;DHT22;6623;52.120;8.660;2022-12-18T06:21:12;-4.80;75.70
13115;DHT22;6623;52.120;8.660;2022-12-18T06:23:37;-4.80;75.70
13115;DHT22;6623;52.120;8.660;2022-12-18T06:26:08;-4.70;75.80
13115;DHT22;6623;52.120;8.660;2022-12-18T06:28:34;-4.70;75.80
13115;DHT22;6623;52.120;8.660;2022-12-18T06:31:00;-4.80;75.90
13115;DHT22;6623;52.120;8.660;2022-12-18T06:33:30;-4.70;75.90
13115;DHT22;6623;52.120;8.660;2022-12-18T06:36:03;-4.80;75.90
13115;DHT22;6623;52.120;8.660;2022-12-18T06:38:42;-4.70;76.00
13115;DHT22;6623;52.120;8.660;2022-12-18T06:41:14;-4.80;76.00
13115;DHT22;6623;52.120;8.660;2022-12-18T06:43:43;-4.80;75.90
13115;DHT22;6623;52.120;8.660;2022-12-18T06:46:09;-4.70;76.00
13115;DHT22;6623;52.120;8.660;2022-12-18T06:48:41;-4.70;75.90
13115;DHT22;6623;52.120;8.660;2022-12-18T06:51:09;-4.70;76.00
13115;DHT22;6623;52.120;8.660;2022-12-18T06:53:35;-4.80;75.90
13115;DHT22;6623;52.120;8.660;2022-12-18T06:56:06;-3.50;76.60
13115;DHT22;6623;52.120;8.660;2022-12-18T06:58:44;-4.80;75.90
13115;DHT22;6623;52.120;8.660;2022-12-18T07:01:16;-4.70;75.80
13115;DHT22;6623;52.120;8.660;2022-12-18T07:03:51;-4.80;75.70
13115;DHT22;6623;52.120;8.660;2022-12-18T07:06:36;-4.90;75.50
13115;DHT22;6623;52.120;8.660;2022-12-18T07:09:01;-4.90;75.50
13115;DHT22;6623;52.120;8.660;2022-12-18T07:11:27;-5.00;75.50
13115;DHT22;6623;52.120;8.660;2022-12-18T07:13:53;-5.00;75.50
13115;DHT22;6623;52.120;8.660;2022-12-18T07:16:20;-5.00;75.40
13115;DHT22;6623;52.120;8.660;2022-12-18T07:18:46;-5.00;75.30
13115;DHT22;6623;52.120;8.660;2022-12-18T07:21:14;-5.00;75.20
13115;DHT22;6623;52.120;8.660;2022-12-18T07:23:40;-5.00;75.20
13115;DHT22;6623;52.120;8.660;2022-12-18T07:26:11;-5.00;75.30
13115;DHT22;6623;52.120;8.660;2022-12-18T07:28:38;-5.00;75.40
13115;DHT22;6623;52.120;8.660;2022-12-18T07:31:35;-5.10;75.40
13115;DHT22;6623;52.120;8.660;2022-12-18T07:34:11;-5.00;75.60
13115;DHT22;6623;52.120;8.660;2022-12-18T07:36:40;-5.00;75.50
13115;DHT22;6623;52.120;8.660;2022-12-18T07:39:06;-5.00;75.50
13115;DHT22;6623;52.120;8.660;2022-12-18T07:41:32;-4.90;75.60
13115;DHT22;6623;52.120;8.660;2022-12-18T07:43:58;-5.00;75.60
13115;DHT22;6623;52.120;8.660;2022-12-18T07:46:30;-4.90;75.70
13115;DHT22;6623;52.120;8.660;2022-12-18T07:48:56;-4.90;75.70
13115;DHT22;6623;52.120;8.660;2022-12-18T07:51:31;-5.10;75.80
13115;DHT22;6623;52.120;8.660;2022-12-18T07:53:56;-4.90;76.00
13115;DHT22;6623;52.120;8.660;2022-12-18T07:56:28;-4.80;76.20
13115;DHT22;6623;52.120;8.660;2022-12-18T07:58:54;-4.80;76.40
13115;DHT22;6623;52.120;8.660;2022-12-18T08:01:20;-4.80;76.50
13115;DHT22;6623;52.120;8.660;2022-12-18T08:03:46;-4.70;76.70
13115;DHT22;6623;52.120;8.660;2022-12-18T08:06:20;-4.70;76.80
13115;DHT22;6623;52.120;8.660;2022-12-18T08:08:46;-4.70;77.00
13115;DHT22;6623;52.120;8.660;2022-12-18T08:11:11;-4.70;77.00
13115;DHT22;6623;52.120;8.660;2022-12-18T08:13:37;-4.60;77.20
13115;DHT22;6623;52.120;8.660;2022-12-18T08:16:07;-4.60;78.00
13115;DHT22;6623;52.120;8.660;2022-12-18T08:18:34;-4.50;77.50
13115;DHT22;6623;52.120;8.660;2022-12-18T08:21:16;-4.50;77.60
13115;DHT22;6623;52.120;8.660;2022-12-18T08:23:42;-4.40;77.80
13115;DHT22;6623;52.120;8.660;2022-12-18T08:26:11;-4.40;77.90
13115;DHT22;6623;52.120;8.660;2022-12-18T08:28:37;-4.40;78.10
13115;DHT22;6623;52.120;8.660;2022-12-18T08:31:03;-4.30;78.30
13115;DHT22;6623;52.120;8.660;2022-12-18T08:33:29;-4.30;78.30
13115;DHT22;6623;52.120;8.660;2022-12-18T08:35:56;-4.30;78.40
13115;DHT22;6623;52.120;8.660;2022-12-18T08:38:49;-4.20;78.50
13115;DHT22;6623;52.120;8.660;2022-12-18T08:41:16;-4.20;78.70
13115;DHT22;6623;52.120;8.660;2022-12-18T08:43:42;-4.10;78.70
13115;DHT22;6623;52.120;8.660;2022-12-18T08:46:30;-4.10;78.80
13115;DHT22;6623;52.120;8.660;2022-12-18T08:48:56;-4.10;78.80
13115;DHT22;6623;52.120;8.660;2022-12-18T08:51:22;-4.00;78.80
13115;DHT22;6623;52.120;8.660;2022-12-18T08:53:50;-4.00;78.90
13115;DHT22;6623;52.120;8.660;2022-12-18T08:56:19;-4.00;79.00
13115;DHT22;6623;52.120;8.660;2022-12-18T08:58:44;-3.90;79.20
13115;DHT22;6623;52.120;8.660;2022-12-18T09:01:11;-3.90;79.80
13115;DHT22;6623;52.120;8.660;2022-12-18T09:03:37;-3.90;79.30
13115;DHT22;6623;52.120;8.660;2022-12-18T09:06:04;-3.80;79.50
13115;DHT22;6623;52.120;8.660;2022-12-18T09:08:33;-3.80;79.60
13115;DHT22;6623;52.120;8.660;2022-12-18T09:11:01;-3.70;79.60
13115;DHT22;6623;52.120;8.660;2022-12-18T09:13:27;-3.70;80.40
13115;DHT22;6623;52.120;8.660;2022-12-18T09:15:54;-3.60;80.00
13115;DHT22;6623;52.120;8.660;2022-12-18T09:18:22;-3.60;80.00
13115;DHT22;6623;52.120;8.660;2022-12-18T09:20:48;-3.60;80.20
13115;DHT22;6623;52.120;8.660;2022-12-18T09:23:14;-3.50;80.20
13115;DHT22;6623;52.120;8.660;2022-12-18T09:25:39;-3.40;80.30
13115;DHT22;6623;52.120;8.660;2022-12-18T09:28:13;-3.40;80.40
13115;DHT22;6623;52.120;8.660;2022-12-18T09:30:41;-3.30;80.50
13115;DHT22;6623;52.120;8.660;2022-12-18T09:33:07;-3.10;80.60
13115;DHT22;6623;52.120;8.660;2022-12-18T09:35:35;-3.20;80.60
13115;DHT22;6623;52.120;8.660;2022-12-18T09:38:01;-3.10;80.60
13115;DHT22;6623;52.120;8.660;2022-12-18T09:40:32;-3.10;80.60
13115;DHT22;6623;52.120;8.660;2022-12-18T09:43:04;-3.00;80.70
13115;DHT22;6623;52.120;8.660;2022-12-18T09:45:40;-3.00;80.70
13115;DHT22;6623;52.120;8.660;2022-12-18T09:48:34;-2.90;80.70
13115;DHT22;6623;52.120;8.660;2022-12-18T09:51:04;-2.90;80.70
13115;DHT22;6623;52.120;8.660;2022-12-18T09:53:33;-2.90;80.80
13115;DHT22;6623;52.120;8.660;2022-12-18T09:56:01;-2.80;80.80
13115;DHT22;6623;52.120;8.660;2022-12-18T09:58:36;-2.80;80.70
13115;DHT22;6623;52.120;8.660;2022-12-18T10:01:20;-2.70;80.70
13115;DHT22;6623;52.120;8.660;2022-12-18T10:03:47;-2.70;80.70
13115;DHT22;6623;52.120;8.660;2022-12-18T10:06:20;-2.70;80.60
13115;DHT22;6623;52.120;8.660;2022-12-18T10:08:51;-2.60;80.70
13115;DHT22;6623;52.120;8.660;2022-12-18T10:16:58;-2.50;80.60
13115;DHT22;6623;52.120;8.660;2022-12-18T10:19:42;-2.50;80.60
13115;DHT22;6623;52.120;8.660;2022-12-18T10:27:52;-2.30;80.50
13115;DHT22;6623;52.120;8.660;2022-12-18T10:30:21;-2.40;80.40
13115;DHT22;6623;52.120;8.660;2022-12-18T10:32:47;-2.30;80.50
13115;DHT22;6623;52.120;8.660;2022-12-18T10:35:27;-2.30;80.50
13115;DHT22;6623;52.120;8.660;2022-12-18T10:40:26;-2.20;80.40
13115;DHT22;6623;52.120;8.660;2022-12-18T10:43:12;-2.10;80.50
13115;DHT22;6623;52.120;8.660;2022-12-18T10:45:38;-2.10;80.50
13115;DHT22;6623;52.120;8.660;2022-12-18T10:48:04;-2.00;80.50
13115;DHT22;6623;52.120;8.660;2022-12-18T10:50:47;-2.00;80.40
13115;DHT22;6623;52.120;8.660;2022-12-18T10:53:22;-1.90;80.40
13115;DHT22;6623;52.120;8.660;2022-12-18T10:55:48;-1.80;80.40
13115;DHT22;6623;52.120;8.660;2022-12-18T10:58:27;-1.80;80.30
13115;DHT22;6623;52.120;8.660;2022-12-18T11:01:13;-1.80;80.30
13115;DHT22;6623;52.120;8.660;2022-12-18T11:03:44;-1.70;80.20
13115;DHT22;6623;52.120;8.660;2022-12-18T11:06:13;-0.10;80.90
13115;DHT22;6623;52.120;8.660;2022-12-18T11:08:41;-1.60;80.00
13115;DHT22;6623;52.120;8.660;2022-12-18T11:11:21;-1.50;79.70
13115;DHT22;6623;52.120;8.660;2022-12-18T11:14:13;-1.60;80.10
13115;DHT22;6623;52.120;8.660;2022-12-18T11:16:46;-1.60;79.30
13115;DHT22;6623;52.120;8.660;2022-12-18T11:19:16;-1.10;79.40
13115;DHT22;6623;52.120;8.660;2022-12-18T11:21:56;-1.50;78.90
13115;DHT22;6623;52.120;8.660;2022-12-18T11:24:32;-1.60;78.70
13115;DHT22;6623;52.120;8.660;2022-12-18T11:27:04;-1.60;78.50
13115;DHT22;6623;52.120;8.660;2022-12-18T11:29:39;-1.60;78.50
13115;DHT22;6623;52.120;8.660;2022-12-18T11:38:26;-1.50;78.40
13115;DHT22;6623;52.120;8.660;2022-12-18T11:43:58;-1.50;78.20
13115;DHT22;6623;52.120;8.660;2022-12-18T11:46:35;-1.40;78.30
13115;DHT22;6623;52.120;8.660;2022-12-18T11:49:08;-1.40;78.10
13115;DHT22;6623;52.120;8.660;2022-12-18T11:57:51;-1.20;78.30
13115;DHT22;6623;52.120;8.660;2022-12-18T12:00:23;-1.20;78.00
13115;DHT22;6623;52.120;8.660;2022-12-18T12:03:07;-1.20;78.00
13115;DHT22;6623;52.120;8.660;2022-12-18T12:05:44;0.00;78.60
13115;DHT22;6623;52.120;8.660;2022-12-18T12:08:50;-1.20;77.80
13115;DHT22;6623;52.120;8.660;2022-12-18T12:19:42;-1.00;77.50
13115;DHT22;6623;52.120;8.660;2022-12-18T12:25:10;-0.90;77.30
13115;DHT22;6623;52.120;8.660;2022-12-18T12:27:53;-0.80;77.10
13115;DHT22;6623;52.120;8.660;2022-12-18T12:30:52;-0.80;76.90
13115;DHT22;6623;52.120;8.660;2022-12-18T12:33:33;-0.80;76.90
13115;DHT22;6623;52.120;8.660;2022-12-18T12:36:19;-0.70;76.70
13115;DHT22;6623;52.120;8.660;2022-12-18T12:38:53;-0.70;76.60
13115;DHT22;6623;52.120;8.660;2022-12-18T12:41:23;-0.70;76.60
13115;DHT22;6623;52.120;8.660;2022-12-18T12:44:14;0.00;76.80
13115;DHT22;6623;52.120;8.660;2022-12-18T12:46:41;-0.70;76.30
13115;DHT22;6623;52.120;8.660;2022-12-18T12:49:19;-0.60;76.60
13115;DHT22;6623;52.120;8.660;2022-12-18T12:51:52;-0.60;75.80
13115;DHT22;6623;52.120;8.660;2022-12-18T12:54:23;-0.50;75.90
13115;DHT22;6623;52.120;8.660;2022-12-18T12:57:21;-0.50;75.80
13115;DHT22;6623;52.120;8.660;2022-12-18T13:00:11;-0.50;75.60
13115;DHT22;6623;52.120;8.660;2022-12-18T13:05:58;-0.50;75.40
13115;DHT22;6623;52.120;8.660;2022-12-18T13:08:28;-0.40;75.30
13115;DHT22;6623;52.120;8.660;2022-12-18T13:10:58;-0.40;75.30
13115;DHT22;6623;52.120;8.660;2022-12-18T13:13:54;-0.40;75.10
13115;DHT22;6623;52.120;8.660;2022-12-18T13:16:25;-0.40;75.00
13115;DHT22;6623;52.120;8.660;2022-12-18T13:18:57;-0.30;75.00
13115;DHT22;6623;52.120;8.660;2022-12-18T13:21:32;-0.10;74.80
13115;DHT22;6623;52.120;8.660;2022-12-18T13:24:27;-0.30;74.70
13115;DHT22;6623;52.120;8.660;2022-12-18T13:26:58;-0.30;74.70
13115;DHT22;6623;52.120;8.660;2022-12-18T13:29:41;-0.30;74.70
13115;DHT22;6623;52.120;8.660;2022-12-18T13:32:23;-0.20;74.60
13115;DHT22;6623;52.120;8.660;2022-12-18T13:37:58;-0.20;74.30
13115;DHT22;6623;52.120;8.660;2022-12-18T13:46:06;-0.10;74.00
13115;DHT22;6623;52.120;8.660;2022-12-18T13:48:38;-0.10;74.00
13115;DHT22;6623;52.120;8.660;2022-12-18T13:51:09;-0.10;73.90
13115;DHT22;6623;52.120;8.660;2022-12-18T13:53:42;-0.10;73.70
13115;DHT22;6623;52.120;8.660;2022-12-18T13:56:08;-0.10;73.70
13115;DHT22;6623;52.120;8.660;2022-12-18T13:58:34;-0.10;73.60
13115;DHT22;6623;52.120;8.660;2022-12-18T14:01:00;-0.10;73.40
13115;DHT22;6623;52.120;8.660;2022-12-18T14:03:34;-0.10;73.30
13115;DHT22;6623;52.120;8.660;2022-12-18T14:06:02;-0.10;73.20
13115;DHT22;6623;52.120;8.660;2022-12-18T14:08:38;-0.10;73.20
13115;DHT22;6623;52.120;8.660;2022-12-18T14:11:06;0.40;73.40
13115;DHT22;6623;52.120;8.660;2022-12-18T14:13:35;0.00;73.10
13115;DHT22;6623;52.120;8.660;2022-12-18T14:16:04;0.00;73.00
13115;DHT22;6623;52.120;8.660;2022-12-18T14:18:50;0.00;73.00
13115;DHT22;6623;52.120;8.660;2022-12-18T14:21:21;0.00;72.90
13115;DHT22;6623;52.120;8.660;2022-12-18T14:23:47;0.00;72.80
13115;DHT22;6623;52.120;8.660;2022-12-18T14:26:30;0.20;72.90
13115;DHT22;6623;52.120;8.660;2022-12-18T14:29:24;0.00;72.60
13115;DHT22;6623;52.120;8.660;2022-12-18T14:32:10;0.00;72.50
13115;DHT22;6623;52.120;8.660;2022-12-18T14:34:47;-0.10;72.30
13115;DHT22;6623;52.120;8.660;2022-12-18T14:37:45;0.00;72.30
13115;DHT22;6623;52.120;8.660;2022-12-18T14:40:16;0.10;72.30
13115;DHT22;6623;52.120;8.660;2022-12-18T14:42:42;0.00;72.20
13115;DHT22;6623;52.120;8.660;2022-12-18T14:47:59;0.00;72.10
13115;DHT22;6623;52.120;8.660;2022-12-18T14:50:40;0.00;72.10
13115;DHT22;6623;52.120;8.660;2022-12-18T14:53:45;0.00;72.70
13115;DHT22;6623;52.120;8.660;2022-12-18T14:59:46;0.00;71.90
13115;DHT22;6623;52.120;8.660;2022-12-18T15:02:21;-0.10;71.90
13115;DHT22;6623;52.120;8.660;2022-12-18T15:04:53;-0.10;71.80
13115;DHT22;6623;52.120;8.660;2022-12-18T15:07:24;-0.10;71.80
13115;DHT22;6623;52.120;8.660;2022-12-18T15:10:07;0.00;71.80
13115;DHT22;6623;52.120;8.660;2022-12-18T15:12:41;0.00;71.70
13115;DHT22;6623;52.120;8.660;2022-12-18T15:20:50;0.00;71.80
13115;DHT22;6623;52.120;8.660;2022-12-18T15:25:58;0.80;72.10
13115;DHT22;6623;52.120;8.660;2022-12-18T15:28:28;0.70;72.00
13115;DHT22;6623;52.120;8.660;2022-12-18T15:33:44;0.10;71.50
13115;DHT22;6623;52.120;8.660;2022-12-18T15:36:15;0.10;71.40
13115;DHT22;6623;52.120;8.660;2022-12-18T15:38:47;0.10;71.40
13115;DHT22;6623;52.120;8.660;2022-12-18T15:41:15;0.10;71.30
13115;DHT22;6623;52.120;8.660;2022-12-18T15:43:41;0.10;71.30
13115;DHT22;6623;52.120;8.660;2022-12-18T15:46:15;0.10;71.30
13115;DHT22;6623;52.120;8.660;2022-12-18T15:48:49;0.10;71.20
13115;DHT22;6623;52.120;8.660;2022-12-18T15:51:26;0.10;71.20
13115;DHT22;6623;52.120;8.660;2022-12-18T15:53:55;0.10;71.00
13115;DHT22;6623;52.120;8.660;2022-12-18T15:56:22;0.10;71.00
13115;DHT22;6623;52.120;8.660;2022-12-18T15:59:12;0.10;71.00
13115;DHT22;6623;52.120;8.660;2022-12-18T16:01:39;0.10;71.20
13115;DHT22;6623;52.120;8.660;2022-12-18T16:04:06;0.10;71.00
13115;DHT22;6623;52.120;8.660;2022-12-18T16:06:31;0.10;71.00
13115;DHT22;6623;52.120;8.660;2022-12-18T16:09:00;0.10;71.00
13115;DHT22;6623;52.120;8.660;2022-12-18T16:11:36;0.20;71.70
13115;DHT22;6623;52.120;8.660;2022-12-18T16:14:22;0.20;71.00
13115;DHT22;6623;52.120;8.660;2022-12-18T16:16:50;0.20;70.80
13115;DHT22;6623;52.120;8.660;2022-12-18T16:19:20;0.20;70.80
13115;DHT22;6623;52.120;8.660;2022-12-18T16:21:47;0.20;70.80
13115;DHT22;6623;52.120;8.660;2022-12-18T16:24:18;0.20;70.70
13115;DHT22;6623;52.120;8.660;2022-12-18T16:26:44;0.20;70.60
13115;DHT22;6623;52.120;8.660;2022-12-18T16:29:09;0.20;70.60
13115;DHT22;6623;52.120;8.660;2022-12-18T16:31:38;0.20;70.60
13115;DHT22;6623;52.120;8.660;2022-12-18T16:34:20;0.20;70.60
13115;DHT22;6623;52.120;8.660;2022-12-18T16:36:48;0.20;70.50
13115;DHT22;6623;52.120;8.660;2022-12-18T16:39:14;0.30;70.60
13115;DHT22;6623;52.120;8.660;2022-12-18T16:41:39;0.30;70.60
13115;DHT22;6623;52.120;8.660;2022-12-18T16:44:05;0.30;70.50
13115;DHT22;6623;52.120;8.660;2022-12-18T16:46:31;0.40;70.60
13115;DHT22;6623;52.120;8.660;2022-12-18T16:49:00;0.30;70.50
13115;DHT22;6623;52.120;8.660;2022-12-18T16:51:27;0.30;70.40
13115;DHT22;6623;52.120;8.660;2022-12-18T16:53:54;0.30;70.40
13115;DHT22;6623;52.120;8.660;2022-12-18T16:56:20;0.30;70.30
13115;DHT22;6623;52.120;8.660;2022-12-18T16:58:56;0.30;70.30
13115;DHT22;6623;52.120;8.660;2022-12-18T17:01:22;0.30;70.10
13115;DHT22;6623;52.120;8.660;2022-12-18T17:03:56;0.30;70.00
13115;DHT22;6623;52.120;8.660;2022-12-18T17:06:30;0.30;70.00
13115;DHT22;6623;52.120;8.660;2022-12-18T17:08:57;0.40;70.10
13115;DHT22;6623;52.120;8.660;2022-12-18T17:11:24;0.40;70.10
13115;DHT22;6623;52.120;8.660;2022-12-18T17:13:50;0.40;70.10
13115;DHT22;6623;52.120;8.660;2022-12-18T17:16:17;0.40;70.10
13115;DHT22;6623;52.120;8.660;2022-12-18T17:18:42;0.40;70.10
13115;DHT22;6623;52.120;8.660;2022-12-18T17:21:09;0.40;70.10
13115;DHT22;6623;52.120;8.660;2022-12-18T17:23:36;0.40;70.00
13115;DHT22;6623;52.120;8.660;2022-12-18T17:26:02;0.40;69.90
13115;DHT22;6623;52.120;8.660;2022-12-18T17:28:29;1.40;70.30
13115;DHT22;6623;52.120;8.660;2022-12-18T17:30:55;0.40;69.80
13115;DHT22;6623;52.120;8.660;2022-12-18T17:33:22;0.50;69.80
13115;DHT22;6623;52.120;8.660;2022-12-18T17:35:48;0.50;70.50
13115;DHT22;6623;52.120;8.660;2022-12-18T17:38:14;0.50;69.80
13115;DHT22;6623;52.120;8.660;2022-12-18T17:40:40;0.50;69.70
13115;DHT22;6623;52.120;8.660;2022-12-18T17:43:07;0.50;69.60
13115;DHT22;6623;52.120;8.660;2022-12-18T17:45:37;0.50;69.60
13115;DHT22;6623;52.120;8.660;2022-12-18T17:48:08;0.50;69.50
13115;DHT22;6623;52.120;8.660;2022-12-18T17:50:34;0.50;69.40
13115;DHT22;6623;52.120;8.660;2022-12-18T17:53:00;0.50;69.40
13115;DHT22;6623;52.120;8.660;2022-12-18T17:55:26;0.50;69.30
13115;DHT22;6623;52.120;8.660;2022-12-18T17:57:52;0.50;69.20